createdAt,value
2023-01-13T00:02:05.432Z,86.91
2023-01-13T00:07:06.829Z,87.30
2023-01-13T00:12:08.298Z,88.02
2023-01-13T00:17:09.751Z,88.01
2023-01-13T00:22:11.069Z,88.75
2023-01-13T00:27:12.386Z,88.98
2023-01-13T00:32:13.709Z,88.42
2023-01-13T00:37:15.120Z,89.38
2023-01-13T00:42:35.145Z,89.44
2023-01-13T00:47:36.551Z,90.54
2023-01-13T00:52:37.885Z,90.38
2023-01-13T00:57:40.018Z,90.74
2023-01-13T01:02:41.459Z,90.73
2023-01-13T01:07:42.783Z,91.01
2023-01-13T01:12:44.106Z,90.70
2023-01-13T01:17:45.454Z,91.57
2023-01-13T01:22:46.798Z,91.20
2023-01-13T01:27:48.151Z,91.49
2023-01-13T01:32:49.663Z,91.31
2023-01-13T01:37:50.998Z,91.71
2023-01-13T01:43:11.176Z,90.78
2023-01-13T01:48:12.566Z,90.77
2023-01-13T01:53:17.561Z,90.74
2023-01-13T01:58:21.752Z,89.77
2023-01-13T02:03:23.126Z,89.61
2023-01-13T02:08:24.925Z,89.73
2023-01-13T02:13:26.298Z,89.72
2023-01-13T02:18:27.604Z,88.87
2023-01-13T02:24:13.208Z,88.38
2023-01-13T02:30:04.201Z,88.73
2023-01-13T02:35:13.347Z,89.22
2023-01-13T02:40:20.773Z,88.59
2023-01-13T02:45:26.350Z,88.36
2023-01-13T02:50:42.898Z,88.72
2023-01-13T02:55:46.720Z,88.24
2023-01-13T03:00:48.957Z,89.02
2023-01-13T03:05:52.208Z,88.83
2023-01-13T03:10:59.845Z,88.58
2023-01-13T03:16:03.909Z,88.75
2023-01-13T03:21:05.269Z,88.21
2023-01-13T03:26:14.170Z,88.09
2023-01-13T03:31:21.832Z,88.46
2023-01-13T03:36:25.720Z,87.30
2023-01-13T03:41:34.589Z,86.93
2023-01-13T03:46:43.475Z,87.56
2023-01-13T03:51:47.786Z,87.30
2023-01-13T03:56:51.308Z,86.93
2023-01-13T04:02:06.739Z,87.96
2023-01-13T04:07:26.845Z,88.05
2023-01-13T04:12:48.340Z,87.98
2023-01-13T04:17:50.114Z,87.78
2023-01-13T04:22:51.436Z,88.60
2023-01-13T04:27:52.753Z,87.38
2023-01-13T04:32:54.101Z,87.26
2023-01-13T04:37:55.564Z,86.99
2023-01-13T04:42:56.916Z,86.69
2023-01-13T04:47:58.409Z,86.74
2023-01-13T04:53:01.088Z,86.36
2023-01-13T04:58:03.546Z,86.80
2023-01-13T05:03:05.141Z,86.72
2023-01-13T05:08:06.544Z,86.64
2023-01-13T05:13:27.712Z,87.23
2023-01-13T05:18:30.569Z,86.69
2023-01-13T05:23:50.614Z,86.83
2023-01-13T05:28:51.929Z,86.79
2023-01-13T05:33:53.249Z,85.96
2023-01-13T05:38:54.578Z,85.58
2023-01-13T05:43:55.943Z,85.76
2023-01-13T05:48:57.276Z,86.24
2023-01-13T05:53:59.129Z,85.68
2023-01-13T05:59:00.482Z,86.55
2023-01-13T06:04:01.856Z,86.39
2023-01-13T06:09:03.246Z,86.39
2023-01-13T06:14:04.595Z,86.19
2023-01-13T06:19:08.939Z,86.63
2023-01-13T06:24:10.753Z,86.06
2023-01-13T06:29:14.900Z,86.13
2023-01-13T06:34:16.392Z,86.98
2023-01-13T06:39:20.136Z,86.14
2023-01-13T06:44:23.323Z,86.91
2023-01-13T06:49:24.637Z,86.51
2023-01-13T06:54:27.767Z,86.68
2023-01-13T06:59:29.325Z,86.41
2023-01-13T07:04:30.631Z,85.75
2023-01-13T07:09:31.940Z,86.11
2023-01-13T07:14:52.140Z,85.97
2023-01-13T07:19:53.527Z,85.74
2023-01-13T07:24:54.894Z,85.97
2023-01-13T07:29:56.239Z,85.87
2023-01-13T07:34:58.545Z,86.40
2023-01-13T07:39:59.995Z,87.13
2023-01-13T07:45:02.473Z,87.59
2023-01-13T07:50:03.984Z,87.44
2023-01-13T07:55:05.566Z,88.39
2023-01-13T08:00:07.369Z,88.64
2023-01-13T08:05:08.973Z,88.62
2023-01-13T08:10:10.591Z,88.81
2023-01-13T08:15:12.292Z,88.56
2023-01-13T08:20:13.612Z,89.06
2023-01-13T08:25:14.970Z,88.79
2023-01-13T08:30:16.513Z,88.63
2023-01-13T08:35:18.199Z,88.79
2023-01-13T08:40:20.747Z,88.85
2023-01-13T08:45:22.079Z,88.31
2023-01-13T08:50:23.528Z,88.59
2023-01-13T08:55:24.878Z,88.83
2023-01-13T09:00:26.296Z,88.98
2023-01-13T09:05:27.746Z,88.40
2023-01-13T09:10:29.277Z,88.36
2023-01-13T09:15:30.616Z,87.58
2023-01-13T09:20:31.982Z,87.16
2023-01-13T09:25:36.415Z,82.96
2023-01-13T09:30:38.422Z,86.35
2023-01-13T09:35:41.231Z,88.69
2023-01-13T09:40:43.761Z,90.21
2023-01-13T09:45:45.194Z,91.54
2023-01-13T09:51:02.711Z,92.97
2023-01-13T09:56:04.878Z,92.33
2023-01-13T10:01:13.224Z,93.09
2023-01-13T10:06:14.609Z,92.95
2023-01-13T10:11:36.793Z,93.77
2023-01-13T10:16:44.557Z,94.07
2023-01-13T10:21:45.932Z,94.27
2023-01-13T10:26:58.198Z,94.57
2023-01-13T10:32:00.300Z,94.46
2023-01-13T10:37:06.586Z,94.89
2023-01-13T10:42:13.835Z,95.29
2023-01-13T10:47:28.984Z,94.77
2023-01-13T10:52:31.922Z,95.61
2023-01-13T10:57:36.115Z,96.05
2023-01-13T11:02:38.583Z,96.48
2023-01-13T11:07:41.319Z,95.50
2023-01-13T11:12:54.137Z,95.13
2023-01-13T11:18:01.546Z,95.61
2023-01-13T11:23:07.180Z,96.07
2023-01-13T11:28:17.864Z,95.29
2023-01-13T11:33:32.398Z,95.28
2023-01-13T11:38:40.368Z,96.00
2023-01-13T11:43:59.063Z,96.10
2023-01-13T11:49:00.806Z,95.60
2023-01-13T11:54:25.279Z,95.19
2023-01-13T11:59:45.166Z,94.75
2023-01-13T12:05:01.772Z,96.82
2023-01-13T12:10:07.124Z,95.47
2023-01-13T12:15:22.312Z,96.11
2023-01-13T12:20:26.550Z,96.46
2023-01-13T12:25:32.534Z,95.46
2023-01-13T12:30:44.045Z,94.32
2023-01-13T12:36:06.662Z,95.36
2023-01-13T12:41:07.994Z,95.00
2023-01-13T12:46:18.614Z,94.19
2023-01-13T12:51:24.162Z,95.00
2023-01-13T12:56:30.685Z,95.63
2023-01-13T13:01:35.980Z,94.71
2023-01-13T13:06:39.303Z,94.10
2023-01-13T13:12:01.004Z,94.22
2023-01-13T13:17:02.847Z,94.31
2023-01-13T13:22:13.614Z,93.03
2023-01-13T13:27:18.971Z,94.18
2023-01-13T13:32:46.658Z,94.82
2023-01-13T13:38:15.242Z,95.53
2023-01-13T13:43:35.358Z,94.87
2023-01-13T13:48:37.205Z,90.67
2023-01-13T13:53:41.582Z,87.82
2023-01-13T13:58:42.950Z,87.53
2023-01-13T14:03:44.624Z,89.24
2023-01-13T14:08:49.475Z,89.96
2023-01-13T14:14:00.756Z,90.70
2023-01-13T14:19:02.172Z,90.99
2023-01-13T14:24:13.903Z,91.77
2023-01-13T14:29:18.400Z,91.70
2023-01-13T14:34:32.497Z,91.99
2023-01-13T14:39:38.072Z,91.20
2023-01-13T14:44:44.018Z,91.60
2023-01-13T14:50:00.308Z,91.40
2023-01-13T14:55:04.685Z,92.22
2023-01-13T15:00:15.005Z,92.79
2023-01-13T15:05:19.388Z,93.57
2023-01-13T15:10:26.460Z,91.42
2023-01-13T15:15:35.386Z,89.71
2023-01-13T15:20:36.711Z,90.45
2023-01-13T15:25:40.008Z,90.97
2023-01-13T15:30:41.598Z,91.74
2023-01-13T15:35:44.917Z,91.17
2023-01-13T15:40:46.867Z,90.63
2023-01-13T15:46:07.172Z,90.95
2023-01-13T15:51:09.901Z,90.71
2023-01-13T15:56:15.405Z,90.80
2023-01-13T16:01:16.917Z,91.08
2023-01-13T16:06:19.562Z,91.41
2023-01-13T16:11:20.946Z,90.98
2023-01-13T16:16:24.213Z,91.08
2023-01-13T16:21:25.712Z,90.99
2023-01-13T16:26:27.806Z,91.09
2023-01-13T16:31:31.918Z,90.85
2023-01-13T16:36:34.858Z,90.49
2023-01-13T16:41:36.241Z,90.22
2023-01-13T16:46:37.602Z,90.54
2023-01-13T16:51:39.285Z,90.20
2023-01-13T16:56:40.656Z,90.74
2023-01-13T17:01:42.942Z,90.32
2023-01-13T17:06:47.169Z,90.44
2023-01-13T17:11:48.762Z,90.90
2023-01-13T17:16:51.266Z,90.90
2023-01-13T17:21:53.454Z,90.57
2023-01-13T17:26:54.781Z,90.36
2023-01-13T17:31:56.167Z,90.90
2023-01-13T17:36:57.580Z,90.84
2023-01-13T17:41:58.931Z,91.16
2023-01-13T17:47:00.292Z,91.50
2023-01-13T17:52:01.945Z,91.96
2023-01-13T17:57:03.463Z,91.76
2023-01-13T18:02:05.320Z,91.85
2023-01-13T18:07:06.945Z,92.62
2023-01-13T18:12:08.517Z,92.36
2023-01-13T18:17:10.159Z,91.37
2023-01-13T18:22:33.182Z,91.82
2023-01-13T18:27:35.879Z,91.55
2023-01-13T18:32:37.355Z,91.68
2023-01-13T18:37:40.378Z,92.08
2023-01-13T18:42:51.130Z,92.04
2023-01-13T18:47:53.438Z,91.71
2023-01-13T18:52:55.452Z,91.64
2023-01-13T18:57:57.064Z,91.21
2023-01-13T19:08:07.450Z,91.48
2023-01-13T19:13:08.828Z,91.68
2023-01-13T19:18:10.136Z,91.44
2023-01-13T19:23:12.554Z,91.26
2023-01-13T19:28:14.741Z,91.42
2023-01-13T19:33:16.143Z,91.99
2023-01-13T19:38:17.465Z,91.64
2023-01-13T19:43:37.696Z,91.46
2023-01-13T19:48:39.486Z,91.60
2023-01-13T19:53:41.184Z,91.40
2023-01-13T19:58:43.944Z,91.72
2023-01-13T20:03:45.927Z,91.73
2023-01-13T20:08:48.424Z,92.58
2023-01-13T20:13:51.988Z,91.47
2023-01-13T20:18:53.364Z,91.58
2023-01-13T20:23:54.749Z,91.14
2023-01-13T20:28:56.053Z,91.70
2023-01-13T20:33:57.370Z,91.67
2023-01-13T20:38:59.540Z,92.21
2023-01-13T20:44:00.892Z,91.76
2023-01-13T20:49:02.206Z,91.42
2023-01-13T20:54:03.819Z,91.09
2023-01-13T20:59:05.125Z,91.18
2023-01-13T21:04:08.015Z,91.47
2023-01-13T21:09:09.509Z,92.04
2023-01-13T21:14:34.084Z,91.84
2023-01-13T21:19:35.396Z,91.89
2023-01-13T21:24:36.707Z,92.61
2023-01-13T21:29:38.105Z,93.07
2023-01-13T21:34:39.469Z,92.09
2023-01-13T21:39:40.795Z,92.03
2023-01-13T21:45:01.057Z,91.78
2023-01-13T21:50:03.099Z,91.98
2023-01-13T21:55:17.065Z,91.69
2023-01-13T22:00:19.315Z,91.73
2023-01-13T22:05:21.766Z,91.54
2023-01-13T22:10:24.253Z,91.70
2023-01-13T22:15:28.081Z,91.40
2023-01-13T22:20:29.420Z,91.67
2023-01-13T22:25:30.748Z,92.01
2023-01-13T22:30:32.475Z,92.25
2023-01-13T22:35:33.812Z,92.32
2023-01-13T22:40:35.120Z,92.38
2023-01-13T22:45:36.583Z,92.92
2023-01-13T22:50:39.053Z,92.86
2023-01-13T22:55:40.378Z,92.42
2023-01-13T23:00:41.716Z,92.60
2023-01-13T23:05:43.217Z,91.92
2023-01-13T23:10:44.632Z,90.73
2023-01-13T23:15:46.010Z,91.72
2023-01-13T23:20:47.345Z,90.94
2023-01-13T23:25:49.601Z,91.16
2023-01-13T23:30:51.665Z,91.14
2023-01-13T23:35:57.200Z,91.19
2023-01-13T23:40:58.544Z,90.92
2023-01-13T23:46:03.966Z,90.96
2023-01-13T23:51:06.970Z,90.98
2023-01-13T23:56:10.929Z,90.56
